sensor_id;sensor_type;location;lat;lon;timestamp;pressure;altitude;pressure_sealevel;temperature;humidity
53011;BME280;42803;55.762;38.084;2022-09-21T00:00:06;99520.22;;;4.68;100.00
53011;BME280;42803;55.762;38.084;2022-09-21T00:02:36;99518.84;;;5.06;100.00
53011;BME280;42803;55.762;38.084;2022-09-21T00:05:07;99522.34;;;4.98;100.00
53011;BME280;42803;55.762;38.084;2022-09-21T00:07:36;99526.75;;;4.99;100.00
53011;BME280;42803;55.762;38.084;2022-09-21T00:10:06;99528.44;;;4.81;100.00
53011;BME280;42803;55.762;38.084;2022-09-21T00:12:35;99530.56;;;4.94;100.00
53011;BME280;42803;55.762;38.084;2022-09-21T00:15:06;99524.31;;;5.09;100.00
53011;BME280;42803;55.762;38.084;2022-09-21T00:17:37;99527.81;;;5.19;100.00
53011;BME280;42803;55.762;38.084;2022-09-21T00:20:06;99528.53;;;5.26;100.00
53011;BME280;42803;55.762;38.084;2022-09-21T00:22:35;99527.03;;;5.28;100.00
53011;BME280;42803;55.762;38.084;2022-09-21T00:25:05;99521.25;;;5.22;100.00
53011;BME280;42803;55.762;38.084;2022-09-21T00:27:35;99521.56;;;5.17;100.00
53011;BME280;42803;55.762;38.084;2022-09-21T00:30:05;99529.19;;;5.06;100.00
53011;BME280;42803;55.762;38.084;2022-09-21T00:32:37;99524.88;;;5.33;100.00
53011;BME280;42803;55.762;38.084;2022-09-21T00:35:07;99529.44;;;5.44;100.00
53011;BME280;42803;55.762;38.084;2022-09-21T00:37:36;99527.94;;;5.29;100.00
53011;BME280;42803;55.762;38.084;2022-09-21T00:40:06;99529.75;;;5.30;100.00
53011;BME280;42803;55.762;38.084;2022-09-21T00:42:37;99533.72;;;5.35;100.00
53011;BME280;42803;55.762;38.084;2022-09-21T00:45:11;99538.75;;;5.25;100.00
53011;BME280;42803;55.762;38.084;2022-09-21T00:47:50;99540.13;;;5.21;100.00
53011;BME280;42803;55.762;38.084;2022-09-21T00:50:23;99523.06;;;5.32;100.00
53011;BME280;42803;55.762;38.084;2022-09-21T00:52:54;99529.19;;;5.24;100.00
53011;BME280;42803;55.762;38.084;2022-09-21T00:55:27;99523.22;;;5.25;100.00
53011;BME280;42803;55.762;38.084;2022-09-21T00:58:02;99525.81;;;5.07;100.00
53011;BME280;42803;55.762;38.084;2022-09-21T01:00:32;99522.22;;;4.97;100.00
53011;BME280;42803;55.762;38.084;2022-09-21T01:03:02;99518.25;;;5.00;100.00
53011;BME280;42803;55.762;38.084;2022-09-21T01:05:32;99510.50;;;5.00;100.00
53011;BME280;42803;55.762;38.084;2022-09-21T01:08:03;99518.53;;;4.95;100.00
53011;BME280;42803;55.762;38.084;2022-09-21T01:10:43;99513.84;;;4.91;100.00
53011;BME280;42803;55.762;38.084;2022-09-21T01:13:22;99514.16;;;4.85;100.00
53011;BME280;42803;55.762;38.084;2022-09-21T01:16:00;99521.75;;;4.75;100.00
53011;BME280;42803;55.762;38.084;2022-09-21T01:18:36;99531.31;;;4.76;100.00
53011;BME280;42803;55.762;38.084;2022-09-21T01:21:27;99526.59;;;4.80;100.00
53011;BME280;42803;55.762;38.084;2022-09-21T01:24:11;99518.25;;;5.00;100.00
53011;BME280;42803;55.762;38.084;2022-09-21T01:27:01;99521.00;;;4.93;100.00
53011;BME280;42803;55.762;38.084;2022-09-21T01:29:40;99521.13;;;4.69;100.00
53011;BME280;42803;55.762;38.084;2022-09-21T01:32:14;99525.22;;;4.84;100.00
53011;BME280;42803;55.762;38.084;2022-09-21T01:34:49;99520.97;;;4.76;100.00
53011;BME280;42803;55.762;38.084;2022-09-21T01:37:23;99522.34;;;4.63;100.00
53011;BME280;42803;55.762;38.084;2022-09-21T01:39:57;99534.66;;;4.57;100.00
53011;BME280;42803;55.762;38.084;2022-09-21T01:42:32;99529.34;;;4.47;100.00
53011;BME280;42803;55.762;38.084;2022-09-21T01:45:06;99523.97;;;4.37;100.00
53011;BME280;42803;55.762;38.084;2022-09-21T01:47:39;99521.97;;;4.26;100.00
53011;BME280;42803;55.762;38.084;2022-09-21T01:50:09;99522.44;;;4.30;100.00
53011;BME280;42803;55.762;38.084;2022-09-21T01:52:42;99530.81;;;4.28;100.00
53011;BME280;42803;55.762;38.084;2022-09-21T01:55:15;99534.00;;;4.34;100.00
53011;BME280;42803;55.762;38.084;2022-09-21T01:57:53;99523.97;;;4.28;100.00
53011;BME280;42803;55.762;38.084;2022-09-21T02:00:24;99523.78;;;4.27;100.00
53011;BME280;42803;55.762;38.084;2022-09-21T02:02:57;99528.50;;;4.31;100.00
53011;BME280;42803;55.762;38.084;2022-09-21T02:05:28;99525.47;;;4.26;100.00
53011;BME280;42803;55.762;38.084;2022-09-21T02:07:58;99533.69;;;4.31;100.00
53011;BME280;42803;55.762;38.084;2022-09-21T02:10:32;99536.75;;;4.35;100.00
53011;BME280;42803;55.762;38.084;2022-09-21T02:13:03;99534.91;;;4.34;100.00
53011;BME280;42803;55.762;38.084;2022-09-21T02:15:47;99534.63;;;4.40;100.00
53011;BME280;42803;55.762;38.084;2022-09-21T02:18:30;99537.81;;;4.46;100.00
53011;BME280;42803;55.762;38.084;2022-09-21T02:21:05;99540.72;;;4.40;100.00
53011;BME280;42803;55.762;38.084;2022-09-21T02:23:42;99533.56;;;4.38;100.00
53011;BME280;42803;55.762;38.084;2022-09-21T02:26:17;99532.47;;;4.27;100.00
53011;BME280;42803;55.762;38.084;2022-09-21T02:28:55;99541.94;;;4.35;100.00
53011;BME280;42803;55.762;38.084;2022-09-21T02:31:35;99542.97;;;4.37;100.00
53011;BME280;42803;55.762;38.084;2022-09-21T02:34:16;99543.75;;;4.36;100.00
53011;BME280;42803;55.762;38.084;2022-09-21T02:36:48;99540.13;;;4.43;100.00
53011;BME280;42803;55.762;38.084;2022-09-21T02:39:24;99538.91;;;4.39;100.00
53011;BME280;42803;55.762;38.084;2022-09-21T02:42:03;99535.69;;;4.33;100.00
53011;BME280;42803;55.762;38.084;2022-09-21T02:44:39;99548.59;;;4.42;100.00
53011;BME280;42803;55.762;38.084;2022-09-21T02:47:13;99540.41;;;4.46;100.00
53011;BME280;42803;55.762;38.084;2022-09-21T02:49:48;99546.66;;;4.48;100.00
53011;BME280;42803;55.762;38.084;2022-09-21T02:52:21;99541.31;;;4.38;100.00
53011;BME280;42803;55.762;38.084;2022-09-21T02:54:52;99540.97;;;4.35;100.00
53011;BME280;42803;55.762;38.084;2022-09-21T02:57:23;99549.25;;;4.48;100.00
53011;BME280;42803;55.762;38.084;2022-09-21T02:59:53;99538.13;;;4.49;100.00
53011;BME280;42803;55.762;38.084;2022-09-21T03:02:34;99546.34;;;4.45;100.00
53011;BME280;42803;55.762;38.084;2022-09-21T03:05:05;99545.44;;;4.45;100.00
53011;BME280;42803;55.762;38.084;2022-09-21T03:07:34;99544.84;;;4.47;100.00
53011;BME280;42803;55.762;38.084;2022-09-21T03:10:04;99543.47;;;4.51;100.00
53011;BME280;42803;55.762;38.084;2022-09-21T03:12:34;99540.72;;;4.49;100.00
53011;BME280;42803;55.762;38.084;2022-09-21T03:15:04;99531.91;;;4.56;100.00
53011;BME280;42803;55.762;38.084;2022-09-21T03:17:35;99537.53;;;4.60;100.00
53011;BME280;42803;55.762;38.084;2022-09-21T03:20:05;99534.97;;;4.60;100.00
53011;BME280;42803;55.762;38.084;2022-09-21T03:22:34;99538.31;;;4.59;100.00
53011;BME280;42803;55.762;38.084;2022-09-21T03:25:05;99539.38;;;4.61;100.00
53011;BME280;42803;55.762;38.084;2022-09-21T03:27:36;99533.47;;;4.62;100.00
53011;BME280;42803;55.762;38.084;2022-09-21T03:30:09;99539.22;;;4.69;100.00
53011;BME280;42803;55.762;38.084;2022-09-21T03:32:39;99539.53;;;4.72;100.00
53011;BME280;42803;55.762;38.084;2022-09-21T03:35:09;99537.72;;;4.71;100.00
53011;BME280;42803;55.762;38.084;2022-09-21T03:37:39;99534.81;;;4.76;100.00
53011;BME280;42803;55.762;38.084;2022-09-21T03:40:09;99536.94;;;4.72;100.00
53011;BME280;42803;55.762;38.084;2022-09-21T03:42:39;99535.59;;;4.75;100.00
53011;BME280;42803;55.762;38.084;2022-09-21T03:45:10;99537.88;;;4.89;100.00
53011;BME280;42803;55.762;38.084;2022-09-21T03:47:41;99534.06;;;5.03;100.00
53011;BME280;42803;55.762;38.084;2022-09-21T03:50:10;99527.50;;;5.24;100.00
53011;BME280;42803;55.762;38.084;2022-09-21T03:52:40;99531.63;;;5.31;100.00
53011;BME280;42803;55.762;38.084;2022-09-21T03:55:09;99529.78;;;5.38;100.00
53011;BME280;42803;55.762;38.084;2022-09-21T03:57:38;99532.63;;;5.50;100.00
53011;BME280;42803;55.762;38.084;2022-09-21T04:00:08;99528.50;;;5.61;100.00
53011;BME280;42803;55.762;38.084;2022-09-21T04:02:38;99535.47;;;5.71;100.00
53011;BME280;42803;55.762;38.084;2022-09-21T04:05:11;99531.16;;;5.80;100.00
53011;BME280;42803;55.762;38.084;2022-09-21T04:07:42;99536.06;;;5.68;100.00
53011;BME280;42803;55.762;38.084;2022-09-21T04:10:14;99536.81;;;5.76;100.00
53011;BME280;42803;55.762;38.084;2022-09-21T04:12:45;99538.59;;;5.94;100.00
53011;BME280;42803;55.762;38.084;2022-09-21T04:15:16;99542.09;;;6.03;100.00
53011;BME280;42803;55.762;38.084;2022-09-21T04:17:49;99546.03;;;6.08;100.00
53011;BME280;42803;55.762;38.084;2022-09-21T04:20:20;99547.53;;;6.15;100.00
53011;BME280;42803;55.762;38.084;2022-09-21T04:22:50;99544.41;;;6.28;100.00
53011;BME280;42803;55.762;38.084;2022-09-21T04:25:19;99546.19;;;6.38;100.00
53011;BME280;42803;55.762;38.084;2022-09-21T04:27:48;99547.09;;;6.38;100.00
53011;BME280;42803;55.762;38.084;2022-09-21T04:30:19;99549.19;;;6.42;100.00
53011;BME280;42803;55.762;38.084;2022-09-21T04:32:48;99547.72;;;6.35;100.00
53011;BME280;42803;55.762;38.084;2022-09-21T04:35:23;99543.81;;;6.22;100.00
53011;BME280;42803;55.762;38.084;2022-09-21T04:37:53;99544.56;;;6.21;100.00
53011;BME280;42803;55.762;38.084;2022-09-21T04:40:22;99540.78;;;6.17;100.00
53011;BME280;42803;55.762;38.084;2022-09-21T04:42:52;99536.81;;;6.21;100.00
53011;BME280;42803;55.762;38.084;2022-09-21T04:45:22;99538.34;;;6.19;100.00
53011;BME280;42803;55.762;38.084;2022-09-21T04:47:51;99536.75;;;6.29;100.00
53011;BME280;42803;55.762;38.084;2022-09-21T04:50:20;99542.63;;;6.46;100.00
53011;BME280;42803;55.762;38.084;2022-09-21T04:53:04;99534.41;;;6.60;100.00
53011;BME280;42803;55.762;38.084;2022-09-21T04:55:33;99537.53;;;6.75;100.00
53011;BME280;42803;55.762;38.084;2022-09-21T04:58:02;99540.97;;;6.84;100.00
53011;BME280;42803;55.762;38.084;2022-09-21T05:00:31;99544.06;;;6.99;100.00
53011;BME280;42803;55.762;38.084;2022-09-21T05:03:00;99545.72;;;7.17;100.00
53011;BME280;42803;55.762;38.084;2022-09-21T05:05:31;99537.97;;;7.46;100.00
53011;BME280;42803;55.762;38.084;2022-09-21T05:08:01;99539.63;;;7.65;100.00
53011;BME280;42803;55.762;38.084;2022-09-21T05:10:31;99532.28;;;7.79;100.00
53011;BME280;42803;55.762;38.084;2022-09-21T05:13:00;99537.47;;;7.90;100.00
53011;BME280;42803;55.762;38.084;2022-09-21T05:15:32;99527.38;;;7.93;100.00
53011;BME280;42803;55.762;38.084;2022-09-21T05:18:01;99539.00;;;8.27;100.00
53011;BME280;42803;55.762;38.084;2022-09-21T05:20:30;99533.59;;;8.54;100.00
53011;BME280;42803;55.762;38.084;2022-09-21T05:23:00;99539.19;;;8.90;100.00
53011;BME280;42803;55.762;38.084;2022-09-21T05:25:31;99534.31;;;9.25;100.00
53011;BME280;42803;55.762;38.084;2022-09-21T05:28:01;99531.53;;;9.44;100.00
53011;BME280;42803;55.762;38.084;2022-09-21T05:30:30;99535.91;;;9.55;100.00
53011;BME280;42803;55.762;38.084;2022-09-21T05:33:02;99531.50;;;9.54;100.00
53011;BME280;42803;55.762;38.084;2022-09-21T05:35:35;99524.25;;;9.72;100.00
53011;BME280;42803;55.762;38.084;2022-09-21T05:38:08;99519.41;;;9.98;100.00
53011;BME280;42803;55.762;38.084;2022-09-21T05:40:43;99516.34;;;9.92;100.00
53011;BME280;42803;55.762;38.084;2022-09-21T05:43:13;99509.09;;;9.78;100.00
53011;BME280;42803;55.762;38.084;2022-09-21T05:45:44;99508.84;;;9.75;100.00
53011;BME280;42803;55.762;38.084;2022-09-21T05:48:16;99512.13;;;9.94;100.00
53011;BME280;42803;55.762;38.084;2022-09-21T05:50:55;99516.16;;;10.23;100.00
53011;BME280;42803;55.762;38.084;2022-09-21T05:53:51;99507.75;;;10.49;100.00
53011;BME280;42803;55.762;38.084;2022-09-21T05:56:38;99517.25;;;10.70;100.00
53011;BME280;42803;55.762;38.084;2022-09-21T05:59:28;99496.41;;;10.94;100.00
53011;BME280;42803;55.762;38.084;2022-09-21T06:02:09;99509.28;;;11.26;99.62
53011;BME280;42803;55.762;38.084;2022-09-21T06:04:43;99508.69;;;11.30;98.25
53011;BME280;42803;55.762;38.084;2022-09-21T06:07:13;99510.03;;;11.37;98.29
53011;BME280;42803;55.762;38.084;2022-09-21T06:09:42;99498.81;;;11.38;97.74
53011;BME280;42803;55.762;38.084;2022-09-21T06:12:15;99503.91;;;11.36;98.08
53011;BME280;42803;55.762;38.084;2022-09-21T06:14:45;99505.84;;;11.27;98.65
53011;BME280;42803;55.762;38.084;2022-09-21T06:17:21;99501.19;;;11.46;98.82
53011;BME280;42803;55.762;38.084;2022-09-21T06:19:54;99504.00;;;11.61;98.48
53011;BME280;42803;55.762;38.084;2022-09-21T06:22:24;99509.31;;;11.86;97.98
53011;BME280;42803;55.762;38.084;2022-09-21T06:24:53;99500.78;;;11.77;97.61
53011;BME280;42803;55.762;38.084;2022-09-21T06:27:26;99499.00;;;11.88;97.18
53011;BME280;42803;55.762;38.084;2022-09-21T06:29:57;99498.41;;;11.80;96.45
53011;BME280;42803;55.762;38.084;2022-09-21T06:32:27;99500.56;;;11.74;96.32
53011;BME280;42803;55.762;38.084;2022-09-21T06:34:57;99502.38;;;11.75;96.53
53011;BME280;42803;55.762;38.084;2022-09-21T06:37:26;99510.44;;;11.78;96.60
53011;BME280;42803;55.762;38.084;2022-09-21T06:39:56;99508.19;;;11.71;96.70
53011;BME280;42803;55.762;38.084;2022-09-21T06:42:27;99518.44;;;11.68;96.70
53011;BME280;42803;55.762;38.084;2022-09-21T06:44:56;99516.59;;;11.90;96.73
53011;BME280;42803;55.762;38.084;2022-09-21T06:47:26;99515.47;;;11.99;96.03
53011;BME280;42803;55.762;38.084;2022-09-21T06:49:56;99525.63;;;12.19;95.96
53011;BME280;42803;55.762;38.084;2022-09-21T06:52:27;99523.66;;;12.28;96.00
53011;BME280;42803;55.762;38.084;2022-09-21T06:54:57;99520.59;;;12.47;95.23
53011;BME280;42803;55.762;38.084;2022-09-21T06:57:30;99516.50;;;12.51;93.93
53011;BME280;42803;55.762;38.084;2022-09-21T07:00:00;99519.00;;;12.74;93.45
53011;BME280;42803;55.762;38.084;2022-09-21T07:02:31;99522.00;;;13.05;92.14
53011;BME280;42803;55.762;38.084;2022-09-21T07:05:02;99522.31;;;12.72;91.76
53011;BME280;42803;55.762;38.084;2022-09-21T07:07:35;99530.47;;;13.14;91.96
53011;BME280;42803;55.762;38.084;2022-09-21T07:10:06;99522.38;;;13.36;90.48
53011;BME280;42803;55.762;38.084;2022-09-21T07:12:44;99525.25;;;13.94;88.89
53011;BME280;42803;55.762;38.084;2022-09-21T07:15:15;99515.78;;;13.70;87.48
53011;BME280;42803;55.762;38.084;2022-09-21T07:17:48;99519.31;;;13.83;88.70
53011;BME280;42803;55.762;38.084;2022-09-21T07:20:19;99521.97;;;13.70;88.06
53011;BME280;42803;55.762;38.084;2022-09-21T07:22:51;99525.19;;;13.53;88.21
53011;BME280;42803;55.762;38.084;2022-09-21T07:25:23;99534.88;;;13.67;88.47
53011;BME280;42803;55.762;38.084;2022-09-21T07:27:59;99528.78;;;13.95;87.29
53011;BME280;42803;55.762;38.084;2022-09-21T07:30:31;99525.78;;;13.75;87.04
53011;BME280;42803;55.762;38.084;2022-09-21T07:33:01;99526.81;;;13.51;87.71
53011;BME280;42803;55.762;38.084;2022-09-21T07:35:32;99529.59;;;13.27;88.83
53011;BME280;42803;55.762;38.084;2022-09-21T07:38:03;99524.38;;;13.54;88.68
53011;BME280;42803;55.762;38.084;2022-09-21T07:40:34;99521.44;;;13.76;88.29
53011;BME280;42803;55.762;38.084;2022-09-21T07:43:05;99531.59;;;13.98;87.18
53011;BME280;42803;55.762;38.084;2022-09-21T07:45:35;99526.31;;;14.11;86.94
53011;BME280;42803;55.762;38.084;2022-09-21T07:48:05;99525.19;;;14.21;86.56
53011;BME280;42803;55.762;38.084;2022-09-21T07:50:35;99525.06;;;14.32;85.65
53011;BME280;42803;55.762;38.084;2022-09-21T07:53:05;99514.31;;;14.43;85.23
53011;BME280;42803;55.762;38.084;2022-09-21T07:55:34;99521.25;;;14.42;85.31
53011;BME280;42803;55.762;38.084;2022-09-21T07:58:05;99513.91;;;14.36;85.13
53011;BME280;42803;55.762;38.084;2022-09-21T08:00:57;99523.97;;;14.15;86.38
53011;BME280;42803;55.762;38.084;2022-09-21T08:03:27;99518.69;;;14.01;86.47
53011;BME280;42803;55.762;38.084;2022-09-21T08:05:57;99521.97;;;14.11;86.48
53011;BME280;42803;55.762;38.084;2022-09-21T08:08:27;99527.81;;;14.21;86.48
53011;BME280;42803;55.762;38.084;2022-09-21T08:11:01;99520.06;;;14.09;85.94
53011;BME280;42803;55.762;38.084;2022-09-21T08:13:40;99519.88;;;13.93;87.09
53011;BME280;42803;55.762;38.084;2022-09-21T08:16:09;99519.06;;;14.07;86.56
53011;BME280;42803;55.762;38.084;2022-09-21T08:18:39;99527.13;;;14.10;86.59
53011;BME280;42803;55.762;38.084;2022-09-21T08:21:10;99530.28;;;14.04;85.98
53011;BME280;42803;55.762;38.084;2022-09-21T08:23:40;99526.31;;;14.11;86.14
53011;BME280;42803;55.762;38.084;2022-09-21T08:26:12;99520.41;;;14.28;85.76
53011;BME280;42803;55.762;38.084;2022-09-21T08:28:44;99528.34;;;14.43;84.76
53011;BME280;42803;55.762;38.084;2022-09-21T08:31:18;99524.16;;;14.19;85.00
53011;BME280;42803;55.762;38.084;2022-09-21T08:33:49;99525.13;;;14.34;85.49
53011;BME280;42803;55.762;38.084;2022-09-21T08:36:19;99510.16;;;14.74;84.70
53011;BME280;42803;55.762;38.084;2022-09-21T08:38:49;99506.81;;;15.06;83.35
53011;BME280;42803;55.762;38.084;2022-09-21T08:41:21;99503.91;;;15.02;82.95
53011;BME280;42803;55.762;38.084;2022-09-21T08:43:57;99509.16;;;15.31;82.33
53011;BME280;42803;55.762;38.084;2022-09-21T08:46:30;99501.34;;;15.94;79.79
53011;BME280;42803;55.762;38.084;2022-09-21T08:49:05;99499.56;;;16.09;79.04
53011;BME280;42803;55.762;38.084;2022-09-21T08:51:44;99496.53;;;15.70;79.85
53011;BME280;42803;55.762;38.084;2022-09-21T08:54:28;99493.59;;;15.80;78.62
53011;BME280;42803;55.762;38.084;2022-09-21T08:57:06;99498.97;;;15.67;78.15
53011;BME280;42803;55.762;38.084;2022-09-21T08:59:41;99493.50;;;15.64;78.63
53011;BME280;42803;55.762;38.084;2022-09-21T09:02:33;99494.78;;;15.56;79.33
53011;BME280;42803;55.762;38.084;2022-09-21T09:05:16;99486.34;;;15.16;79.15
53011;BME280;42803;55.762;38.084;2022-09-21T09:08:00;99486.13;;;14.68;80.18
53011;BME280;42803;55.762;38.084;2022-09-21T09:10:36;99481.06;;;14.71;80.97
53011;BME280;42803;55.762;38.084;2022-09-21T09:13:22;99482.25;;;14.61;80.90
53011;BME280;42803;55.762;38.084;2022-09-21T09:16:17;99486.22;;;14.55;81.41
53011;BME280;42803;55.762;38.084;2022-09-21T09:18:53;99477.59;;;14.72;80.74
53011;BME280;42803;55.762;38.084;2022-09-21T09:21:30;99480.13;;;15.30;79.46
53011;BME280;42803;55.762;38.084;2022-09-21T09:24:03;99473.41;;;15.50;78.10
53011;BME280;42803;55.762;38.084;2022-09-21T09:26:37;99476.47;;;15.57;77.78
53011;BME280;42803;55.762;38.084;2022-09-21T09:29:15;99477.84;;;15.51;76.95
53011;BME280;42803;55.762;38.084;2022-09-21T09:31:48;99478.53;;;15.17;77.86
53011;BME280;42803;55.762;38.084;2022-09-21T09:34:27;99470.38;;;15.13;78.17
53011;BME280;42803;55.762;38.084;2022-09-21T09:37:00;99474.53;;;15.39;77.72
53011;BME280;42803;55.762;38.084;2022-09-21T09:39:33;99472.66;;;15.67;77.04
53011;BME280;42803;55.762;38.084;2022-09-21T09:42:16;99469.22;;;16.16;75.43
53011;BME280;42803;55.762;38.084;2022-09-21T09:45:02;99466.00;;;16.21;74.81
53011;BME280;42803;55.762;38.084;2022-09-21T09:47:47;99461.03;;;15.95;74.29
53011;BME280;42803;55.762;38.084;2022-09-21T09:50:24;99469.75;;;15.63;75.57
53011;BME280;42803;55.762;38.084;2022-09-21T09:53:02;99463.66;;;15.95;75.21
53011;BME280;42803;55.762;38.084;2022-09-21T09:55:38;99456.34;;;15.58;75.36
53011;BME280;42803;55.762;38.084;2022-09-21T09:58:16;99468.59;;;15.72;74.87
53011;BME280;42803;55.762;38.084;2022-09-21T10:00:49;99458.59;;;15.52;75.61
53011;BME280;42803;55.762;38.084;2022-09-21T10:03:23;99466.09;;;15.29;76.09
53011;BME280;42803;55.762;38.084;2022-09-21T10:05:54;99463.03;;;15.07;77.19
53011;BME280;42803;55.762;38.084;2022-09-21T10:08:29;99460.31;;;15.05;76.76
53011;BME280;42803;55.762;38.084;2022-09-21T10:11:08;99466.59;;;14.93;76.81
53011;BME280;42803;55.762;38.084;2022-09-21T10:13:38;99461.31;;;15.07;76.99
53011;BME280;42803;55.762;38.084;2022-09-21T10:16:12;99461.81;;;15.46;76.50
53011;BME280;42803;55.762;38.084;2022-09-21T10:18:47;99457.06;;;15.70;75.70
53011;BME280;42803;55.762;38.084;2022-09-21T10:21:20;99451.56;;;15.82;74.77
53011;BME280;42803;55.762;38.084;2022-09-21T10:23:52;99450.34;;;15.92;73.79
53011;BME280;42803;55.762;38.084;2022-09-21T10:26:30;99453.66;;;16.04;73.20
53011;BME280;42803;55.762;38.084;2022-09-21T10:29:01;99454.31;;;16.00;73.48
53011;BME280;42803;55.762;38.084;2022-09-21T10:31:56;99451.56;;;15.98;72.66
53011;BME280;42803;55.762;38.084;2022-09-21T10:34:35;99462.63;;;16.24;72.91
53011;BME280;42803;55.762;38.084;2022-09-21T10:37:24;99450.69;;;15.98;72.70
53011;BME280;42803;55.762;38.084;2022-09-21T10:39:54;99453.16;;;16.11;72.24
53011;BME280;42803;55.762;38.084;2022-09-21T10:42:24;99449.78;;;16.14;72.36
53011;BME280;42803;55.762;38.084;2022-09-21T10:45:05;99445.44;;;16.30;72.29
53011;BME280;42803;55.762;38.084;2022-09-21T10:47:36;99446.00;;;16.08;72.34
53011;BME280;42803;55.762;38.084;2022-09-21T10:50:22;99442.28;;;15.89;72.52
53011;BME280;42803;55.762;38.084;2022-09-21T10:52:56;99447.44;;;15.56;73.69
53011;BME280;42803;55.762;38.084;2022-09-21T10:55:28;99443.44;;;15.94;72.69
53011;BME280;42803;55.762;38.084;2022-09-21T10:57:59;99442.28;;;16.21;71.94
53011;BME280;42803;55.762;38.084;2022-09-21T11:00:31;99446.91;;;16.42;70.75
53011;BME280;42803;55.762;38.084;2022-09-21T11:03:27;99440.97;;;16.13;69.47
53011;BME280;42803;55.762;38.084;2022-09-21T11:06:10;99437.84;;;16.04;69.68
53011;BME280;42803;55.762;38.084;2022-09-21T11:08:47;99440.19;;;16.14;70.01
53011;BME280;42803;55.762;38.084;2022-09-21T11:11:33;99434.78;;;16.29;69.71
53011;BME280;42803;55.762;38.084;2022-09-21T11:14:06;99434.81;;;16.45;71.22
53011;BME280;42803;55.762;38.084;2022-09-21T11:16:42;99436.63;;;16.30;71.20
53011;BME280;42803;55.762;38.084;2022-09-21T11:19:19;99444.44;;;16.12;70.82
53011;BME280;42803;55.762;38.084;2022-09-21T11:21:55;99440.13;;;15.81;71.77
53011;BME280;42803;55.762;38.084;2022-09-21T11:24:33;99433.97;;;15.50;72.41
53011;BME280;42803;55.762;38.084;2022-09-21T11:27:09;99442.78;;;15.35;72.05
53011;BME280;42803;55.762;38.084;2022-09-21T11:29:49;99436.41;;;15.47;71.98
53011;BME280;42803;55.762;38.084;2022-09-21T11:32:45;99437.97;;;15.28;71.59
53011;BME280;42803;55.762;38.084;2022-09-21T11:35:45;99431.38;;;15.20;70.86
53011;BME280;42803;55.762;38.084;2022-09-21T11:38:30;99429.47;;;15.18;71.24
53011;BME280;42803;55.762;38.084;2022-09-21T11:41:22;99426.19;;;15.22;71.36
53011;BME280;42803;55.762;38.084;2022-09-21T11:44:43;99426.00;;;15.33;71.54
53011;BME280;42803;55.762;38.084;2022-09-21T11:47:32;99426.84;;;15.03;70.96
53011;BME280;42803;55.762;38.084;2022-09-21T11:50:23;99424.78;;;15.12;71.53
53011;BME280;42803;55.762;38.084;2022-09-21T11:53:28;99424.72;;;14.96;71.69
53011;BME280;42803;55.762;38.084;2022-09-21T11:56:34;99423.63;;;14.77;72.27
53011;BME280;42803;55.762;38.084;2022-09-21T11:59:23;99428.69;;;14.59;72.75
53011;BME280;42803;55.762;38.084;2022-09-21T12:02:13;99423.81;;;14.51;73.19
53011;BME280;42803;55.762;38.084;2022-09-21T12:04:49;99431.88;;;14.41;73.17
53011;BME280;42803;55.762;38.084;2022-09-21T12:07:35;99424.44;;;14.33;74.20
53011;BME280;42803;55.762;38.084;2022-09-21T12:10:23;99422.66;;;14.32;73.92
53011;BME280;42803;55.762;38.084;2022-09-21T12:12:59;99422.25;;;14.26;73.75
53011;BME280;42803;55.762;38.084;2022-09-21T12:15:38;99415.59;;;14.31;74.13
53011;BME280;42803;55.762;38.084;2022-09-21T12:18:16;99425.06;;;14.29;74.35
53011;BME280;42803;55.762;38.084;2022-09-21T12:20:59;99419.31;;;14.07;74.41
53011;BME280;42803;55.762;38.084;2022-09-21T12:23:42;99422.38;;;14.00;75.00
53011;BME280;42803;55.762;38.084;2022-09-21T12:26:17;99421.53;;;13.86;75.92
53011;BME280;42803;55.762;38.084;2022-09-21T12:28:51;99412.44;;;13.81;76.15
53011;BME280;42803;55.762;38.084;2022-09-21T12:31:26;99419.13;;;13.76;75.93
53011;BME280;42803;55.762;38.084;2022-09-21T12:34:02;99407.72;;;13.75;76.33
53011;BME280;42803;55.762;38.084;2022-09-21T12:36:36;99413.53;;;13.84;76.34
53011;BME280;42803;55.762;38.084;2022-09-21T12:39:14;99414.13;;;13.94;76.03
53011;BME280;42803;55.762;38.084;2022-09-21T12:41:52;99411.16;;;14.02;76.04
53011;BME280;42803;55.762;38.084;2022-09-21T12:44:31;99409.63;;;14.06;76.32
53011;BME280;42803;55.762;38.084;2022-09-21T12:47:26;99407.97;;;14.21;76.72
53011;BME280;42803;55.762;38.084;2022-09-21T12:50:02;99413.59;;;14.27;76.67
53011;BME280;42803;55.762;38.084;2022-09-21T12:52:34;99406.34;;;14.23;77.19
53011;BME280;42803;55.762;38.084;2022-09-21T12:55:14;99404.31;;;14.19;77.60
53011;BME280;42803;55.762;38.084;2022-09-21T12:57:55;99410.50;;;14.20;77.83
53011;BME280;42803;55.762;38.084;2022-09-21T13:00:50;99405.38;;;14.08;78.33
53011;BME280;42803;55.762;38.084;2022-09-21T13:03:32;99419.88;;;14.01;78.91
53011;BME280;42803;55.762;38.084;2022-09-21T13:06:50;99417.38;;;13.89;78.69
53011;BME280;42803;55.762;38.084;2022-09-21T13:09:26;99412.75;;;13.85;79.05
53011;BME280;42803;55.762;38.084;2022-09-21T13:11:59;99409.13;;;13.83;79.46
53011;BME280;42803;55.762;38.084;2022-09-21T13:14:41;99414.91;;;13.78;79.57
53011;BME280;42803;55.762;38.084;2022-09-21T13:17:19;99410.16;;;13.72;79.73
53011;BME280;42803;55.762;38.084;2022-09-21T13:19:56;99402.72;;;13.65;79.73
53011;BME280;42803;55.762;38.084;2022-09-21T13:22:30;99404.16;;;13.60;79.69
53011;BME280;42803;55.762;38.084;2022-09-21T13:25:06;99399.72;;;13.59;79.83
53011;BME280;42803;55.762;38.084;2022-09-21T13:28:15;99387.31;;;13.56;80.10
53011;BME280;42803;55.762;38.084;2022-09-21T13:31:29;99384.00;;;13.46;80.53